Time;durP1;ratioP1;P1;durP2;ratioP2;P2;SDS_P1;SDS_P2;PMS_P1;PMS_P2;Temp;Humidity;BMP_temperature;BMP_pressure;BME280_temperature;BME280_humidity;BME280_pressure;Samples;Min_cycle;Max_cycle;Signal;HPM_P1;HPM_P2
2022/10/11 00:01:42;;;;;;;13.25;6.85;;;8.80;99.90;;;;;;5087793;27;20026;-56
2022/10/11 00:04:08;;;;;;;13.55;6.40;;;8.80;99.90;;;;;;5099116;27;20846;-57
2022/10/11 00:06:36;;;;;;;13.77;6.18;;;8.80;99.90;;;;;;5101432;27;20057;-57
2022/10/11 00:09:05;;;;;;;10.63;5.82;;;8.80;99.90;;;;;;5087965;27;20424;-56
2022/10/11 00:11:31;;;;;;;9.23;5.60;;;8.80;99.90;;;;;;5109844;27;20027;-56
2022/10/11 00:13:57;;;;;;;12.05;5.80;;;8.80;99.90;;;;;;5077453;27;20027;-55
2022/10/11 00:16:23;;;;;;;8.65;5.15;;;8.80;99.90;;;;;;5063189;27;20124;-57
2022/10/11 00:18:48;;;;;;;8.48;4.97;;;8.80;99.90;;;;;;5079983;27;20828;-54
2022/10/11 00:21:15;;;;;;;10.60;4.97;;;8.70;99.90;;;;;;5028655;27;20056;-52
2022/10/11 00:23:41;;;;;;;10.63;5.75;;;8.70;99.90;;;;;;5080682;27;20095;-56
2022/10/11 00:26:09;;;;;;;11.90;5.25;;;8.60;99.90;;;;;;5021932;28;20026;-55
2022/10/11 00:28:35;;;;;;;6.97;4.53;;;8.60;99.90;;;;;;5065538;27;20098;-57
2022/10/11 00:31:03;;;;;;;8.02;4.45;;;8.60;99.90;;;;;;5126658;27;20043;-58
2022/10/11 00:33:29;;;;;;;7.10;4.28;;;8.60;99.90;;;;;;5112823;27;20098;-56
2022/10/11 00:35:54;;;;;;;7.78;4.25;;;8.60;99.90;;;;;;5022353;28;20745;-56
2022/10/11 00:38:23;;;;;;;5.03;3.55;;;8.60;99.90;;;;;;5077895;27;20850;-57
2022/10/11 00:40:48;;;;;;;6.60;3.50;;;8.60;99.90;;;;;;5027904;27;20030;-56
2022/10/11 00:43:17;;;;;;;5.93;3.40;;;8.60;99.90;;;;;;5065894;27;20023;-54
2022/10/11 00:46:05;;;;;;;3.88;3.38;;;8.60;99.90;;;;;;5039350;27;20353;-54
2022/10/11 00:48:41;;;;;;;3.67;3.08;;;8.60;99.90;;;;;;5069920;27;20397;-58
2022/10/11 00:51:17;;;;;;;2.65;2.45;;;8.60;99.90;;;;;;5029852;27;20041;-57
2022/10/11 00:53:43;;;;;;;3.67;2.40;;;8.50;99.90;;;;;;5071664;27;20092;-53
2022/10/11 00:56:22;;;;;;;5.28;2.30;;;8.50;99.90;;;;;;5035308;27;20484;-53
2022/10/11 00:58:48;;;;;;;3.92;2.08;;;8.50;99.90;;;;;;5068401;27;20023;-54
2022/10/11 01:01:14;;;;;;;7.68;2.40;;;8.50;99.90;;;;;;5038143;27;20029;-57
2022/10/11 01:03:40;;;;;;;5.70;1.98;;;8.50;99.90;;;;;;5054826;27;20031;-55
2022/10/11 01:06:06;;;;;;;2.20;1.95;;;8.50;99.90;;;;;;5052420;27;20045;-52
2022/10/11 01:08:32;;;;;;;2.78;1.90;;;8.50;99.90;;;;;;5040690;27;20101;-55
2022/10/11 01:10:58;;;;;;;2.95;1.95;;;8.50;99.90;;;;;;5065524;27;20048;-56
2022/10/11 01:13:23;;;;;;;2.67;2.00;;;8.40;99.90;;;;;;5029071;27;20025;-55
2022/10/11 01:16:18;;;;;;;2.78;1.88;;;8.40;99.90;;;;;;5093468;27;20029;-52
2022/10/11 01:18:56;;;;;;;1.90;1.80;;;8.40;99.90;;;;;;5029468;27;20032;-57
2022/10/11 01:21:57;;;;;;;2.33;1.90;;;8.30;99.90;;;;;;5061880;27;20025;-56
2022/10/11 01:25:07;;;;;;;2.72;2.05;;;8.30;99.90;;;;;;5041716;27;20131;-54
2022/10/11 01:27:46;;;;;;;3.35;2.00;;;8.30;99.90;;;;;;5001330;28;20210;-56
2022/10/11 01:30:25;;;;;;;2.47;2.28;;;8.30;99.90;;;;;;5079104;27;20039;-51
2022/10/11 01:33:14;;;;;;;3.00;2.40;;;8.30;99.90;;;;;;5001878;28;20037;-52
2022/10/11 01:35:44;;;;;;;4.90;2.40;;;8.30;99.90;;;;;;5084182;27;20027;-55
2022/10/11 01:38:20;;;;;;;4.88;2.20;;;8.30;99.90;;;;;;5020577;28;20116;-54
2022/10/11 01:40:54;;;;;;;4.07;2.55;;;8.30;99.90;;;;;;5086363;27;20019;-56
2022/10/11 01:43:22;;;;;;;3.80;2.70;;;8.30;99.90;;;;;;5019985;28;20061;-53
2022/10/11 01:45:51;;;;;;;3.88;2.33;;;8.30;99.90;;;;;;5085356;27;20037;-54
2022/10/11 01:48:17;;;;;;;3.67;2.90;;;8.30;99.90;;;;;;5020962;28;20111;-55
2022/10/11 01:51:09;;;;;;;2.60;2.35;;;8.20;99.90;;;;;;5074906;27;20798;-52
2022/10/11 01:54:08;;;;;;;4.65;2.83;;;8.20;99.90;;;;;;4999889;28;20041;-54
2022/10/11 01:57:02;;;;;;;4.13;2.80;;;8.20;99.90;;;;;;5084090;27;20181;-51
2022/10/11 01:59:46;;;;;;;4.43;2.78;;;8.20;99.90;;;;;;5026121;28;20026;-56
2022/10/11 02:02:11;;;;;;;3.38;2.58;;;8.20;99.90;;;;;;5076733;27;20374;-56
2022/10/11 02:04:44;;;;;;;4.53;2.97;;;8.10;99.90;;;;;;5024710;27;20465;-54
2022/10/11 02:07:26;;;;;;;4.05;2.92;;;8.10;99.90;;;;;;5075221;27;20026;-53
2022/10/11 02:10:02;;;;;;;3.42;2.50;;;8.10;99.90;;;;;;5027625;27;20042;-55
2022/10/11 02:12:36;;;;;;;5.15;2.92;;;8.10;99.90;;;;;;5076477;27;20013;-55
2022/10/11 02:15:08;;;;;;;4.15;2.78;;;8.00;99.90;;;;;;5024367;27;20036;-56
2022/10/11 02:17:45;;;;;;;3.97;2.60;;;8.00;99.90;;;;;;5078707;27;20046;-55
2022/10/11 02:20:17;;;;;;;4.05;2.58;;;8.00;99.90;;;;;;5027395;28;20051;-54
2022/10/11 02:22:46;;;;;;;3.63;2.77;;;8.00;99.90;;;;;;5075398;28;20028;-57
2022/10/11 02:25:18;;;;;;;5.00;2.92;;;8.00;99.90;;;;;;5019544;28;20038;-55
2022/10/11 02:27:46;;;;;;;6.05;2.50;;;7.90;99.90;;;;;;5064272;28;20094;-56
2022/10/11 02:30:12;;;;;;;4.18;2.50;;;7.90;99.90;;;;;;5123472;27;20067;-54
2022/10/11 02:32:42;;;;;;;6.28;2.67;;;7.90;99.90;;;;;;5057898;27;20154;-52
2022/10/11 02:35:09;;;;;;;4.78;2.70;;;7.80;99.90;;;;;;5122834;27;20026;-56
2022/10/11 02:38:28;;;;;;;4.13;2.30;;;7.80;99.90;;;;;;5059006;27;20064;-51
2022/10/11 02:41:09;;;;;;;6.35;2.53;;;7.80;99.90;;;;;;5059074;28;20052;-51
2022/10/11 02:43:44;;;;;;;4.60;2.75;;;7.80;99.90;;;;;;5059905;28;20099;-55
2022/10/11 02:46:10;;;;;;;6.63;2.70;;;7.70;99.90;;;;;;5098451;27;20052;-54
2022/10/11 02:48:36;;;;;;;5.80;2.90;;;7.80;99.90;;;;;;5065524;27;20022;-53
2022/10/11 02:51:10;;;;;;;4.97;2.67;;;7.80;99.90;;;;;;5123335;28;20035;-55
2022/10/11 02:53:35;;;;;;;4.00;2.63;;;7.70;99.90;;;;;;5062988;28;20015;-54
2022/10/11 02:56:01;;;;;;;6.40;2.60;;;7.70;99.90;;;;;;5123811;27;20038;-55
2022/10/11 02:58:26;;;;;;;5.35;2.80;;;7.70;99.90;;;;;;5057742;28;20022;-53
2022/10/11 03:00:52;;;;;;;3.58;2.58;;;7.70;99.90;;;;;;5123184;28;20050;-55
2022/10/11 03:03:17;;;;;;;5.45;2.40;;;7.70;99.90;;;;;;5060699;27;20491;-55
2022/10/11 03:05:43;;;;;;;2.97;2.30;;;7.70;99.90;;;;;;5120992;28;20055;-54
2022/10/11 03:08:11;;;;;;;4.50;2.50;;;7.60;99.90;;;;;;5074601;27;20025;-50
2022/10/11 03:10:38;;;;;;;3.72;2.45;;;7.60;99.90;;;;;;5112845;27;20104;-56
2022/10/11 03:13:03;;;;;;;3.67;2.70;;;7.60;99.90;;;;;;5089459;27;20025;-55
2022/10/11 03:15:29;;;;;;;4.07;2.38;;;7.60;99.90;;;;;;5078469;27;20052;-55
2022/10/11 03:17:55;;;;;;;5.07;2.58;;;7.60;99.90;;;;;;5046682;27;20481;-54
2022/10/11 03:20:21;;;;;;;3.97;2.30;;;7.60;99.90;;;;;;5063215;27;20057;-52
2022/10/11 03:22:47;;;;;;;3.90;2.25;;;7.50;99.90;;;;;;5032713;27;20082;-52
2022/10/11 03:25:12;;;;;;;3.53;2.15;;;7.50;99.90;;;;;;5076153;27;20131;-50
2022/10/11 03:27:39;;;;;;;3.92;2.50;;;7.60;99.90;;;;;;5029724;27;20026;-53
2022/10/11 03:30:05;;;;;;;3.67;2.42;;;7.60;99.90;;;;;;5080737;27;20055;-49
2022/10/11 03:32:31;;;;;;;3.92;2.17;;;7.60;99.90;;;;;;5026130;27;20033;-47
2022/10/11 03:34:56;;;;;;;4.35;2.60;;;7.70;99.90;;;;;;5084288;27;20048;-54
2022/10/11 03:37:22;;;;;;;3.38;2.35;;;7.70;99.90;;;;;;5021680;28;20373;-53
2022/10/11 03:39:47;;;;;;;3.50;2.47;;;7.70;99.90;;;;;;5087849;27;20031;-49
2022/10/11 03:42:13;;;;;;;3.90;2.47;;;7.70;99.90;;;;;;5022021;28;20124;-52
2022/10/11 03:44:40;;;;;;;3.72;2.40;;;7.70;99.90;;;;;;5084644;27;20100;-51
2022/10/11 03:47:06;;;;;;;3.90;2.60;;;7.70;99.90;;;;;;5025222;27;20022;-54
2022/10/11 03:49:32;;;;;;;3.70;2.58;;;7.70;99.90;;;;;;5070320;27;20038;-53
2022/10/11 03:51:57;;;;;;;3.17;2.30;;;7.60;99.90;;;;;;5038916;27;20117;-53
2022/10/11 03:54:23;;;;;;;6.38;2.70;;;7.70;99.90;;;;;;5056680;27;20382;-50
2022/10/11 03:56:48;;;;;;;3.90;2.50;;;7.70;99.90;;;;;;5052400;27;20026;-54
2022/10/11 03:59:14;;;;;;;5.70;2.50;;;7.80;99.90;;;;;;5042498;27;20030;-50
2022/10/11 04:01:39;;;;;;;5.65;2.90;;;7.70;99.90;;;;;;5066183;27;20025;-52
2022/10/11 04:04:05;;;;;;;4.82;2.50;;;7.80;99.90;;;;;;5028903;27;20033;-54
2022/10/11 04:06:32;;;;;;;6.20;2.80;;;7.80;99.90;;;;;;5079902;27;20109;-52
2022/10/11 04:08:57;;;;;;;4.75;2.58;;;7.80;99.90;;;;;;5029010;27;20029;-51
2022/10/11 04:11:23;;;;;;;4.75;2.95;;;7.80;99.90;;;;;;5079773;27;20033;-50
2022/10/11 04:13:48;;;;;;;5.00;3.03;;;7.80;99.90;;;;;;5023098;28;20025;-50
2022/10/11 04:16:14;;;;;;;4.90;3.20;;;7.80;99.90;;;;;;5057177;27;20033;-49
2022/10/11 04:18:39;;;;;;;6.88;3.75;;;7.90;99.90;;;;;;5021615;28;20071;-54
2022/10/11 04:21:05;;;;;;;4.78;3.05;;;7.90;99.90;;;;;;5086505;27;20019;-52
2022/10/11 04:23:34;;;;;;;4.93;3.17;;;8.00;99.90;;;;;;5021962;28;20430;-49
2022/10/11 04:26:05;;;;;;;4.72;3.03;;;8.00;99.90;;;;;;5081096;27;20027;-48
2022/10/11 04:28:31;;;;;;;7.15;3.53;;;8.00;99.90;;;;;;5023196;27;20041;-53
2022/10/11 04:30:57;;;;;;;4.45;3.50;;;8.00;99.90;;;;;;5072584;27;20039;-53
2022/10/11 04:33:22;;;;;;;4.97;3.25;;;8.10;99.90;;;;;;5035367;27;20029;-52
2022/10/11 04:35:51;;;;;;;6.47;3.00;;;8.10;99.90;;;;;;5058254;27;20084;-56
2022/10/11 04:38:17;;;;;;;5.45;2.80;;;8.00;99.90;;;;;;5047302;27;20029;-53
2022/10/11 04:40:43;;;;;;;5.43;3.10;;;8.00;99.90;;;;;;5045966;27;20023;-55
2022/10/11 04:43:08;;;;;;;6.13;3.05;;;8.00;99.90;;;;;;5061047;27;20068;-50
2022/10/11 04:45:34;;;;;;;4.82;2.65;;;7.90;99.90;;;;;;5032884;27;20742;-50
2022/10/11 04:47:59;;;;;;;5.35;2.90;;;7.90;99.90;;;;;;5075577;27;20444;-50
2022/10/11 04:50:25;;;;;;;4.43;2.70;;;7.90;99.90;;;;;;5028036;27;20031;-52
2022/10/11 04:52:50;;;;;;;4.40;2.83;;;7.80;99.90;;;;;;5079244;27;20029;-50
2022/10/11 04:55:16;;;;;;;5.47;3.10;;;7.80;99.90;;;;;;5024470;28;20033;-51
2022/10/11 04:57:41;;;;;;;4.88;3.20;;;7.80;99.90;;;;;;5083450;27;20026;-53
2022/10/11 05:00:07;;;;;;;5.47;3.03;;;7.80;99.90;;;;;;5020995;28;20051;-55
2022/10/11 05:02:33;;;;;;;4.18;2.88;;;7.70;99.90;;;;;;5086205;27;20059;-54
2022/10/11 05:04:59;;;;;;;4.70;3.13;;;7.70;99.90;;;;;;5021253;28;20140;-51
2022/10/11 05:07:24;;;;;;;4.38;2.85;;;7.70;99.90;;;;;;5081340;27;20030;-53
2022/10/11 05:09:49;;;;;;;5.50;2.75;;;7.60;99.90;;;;;;5026282;27;20033;-52
2022/10/11 05:12:15;;;;;;;3.85;2.70;;;7.70;99.90;;;;;;5067777;27;20055;-48
2022/10/11 05:14:41;;;;;;;4.68;2.85;;;7.60;99.90;;;;;;5039374;27;20091;-52
2022/10/11 05:17:06;;;;;;;4.25;2.72;;;7.60;99.90;;;;;;5057761;27;20374;-53
2022/10/11 05:19:32;;;;;;;9.50;3.20;;;7.50;99.90;;;;;;5053046;27;20460;-52
2022/10/11 05:21:57;;;;;;;5.22;3.00;;;7.50;99.90;;;;;;5040491;27;20124;-53
2022/10/11 05:24:23;;;;;;;4.72;3.17;;;7.50;99.90;;;;;;5066794;27;20076;-54
2022/10/11 05:26:48;;;;;;;6.18;3.70;;;7.50;99.90;;;;;;5028458;27;20033;-51
2022/10/11 05:29:17;;;;;;;5.63;3.85;;;7.50;99.90;;;;;;5078479;27;20033;-54
2022/10/11 05:31:42;;;;;;;7.80;4.07;;;7.50;99.90;;;;;;5027505;28;20029;-52
2022/10/11 05:34:08;;;;;;;5.00;3.97;;;7.50;99.90;;;;;;5079146;27;20029;-51
2022/10/11 05:36:34;;;;;;;8.20;4.45;;;7.50;99.90;;;;;;5022013;28;20037;-51
2022/10/11 05:38:59;;;;;;;8.02;4.30;;;7.50;99.90;;;;;;5085466;27;20428;-49
2022/10/11 05:41:25;;;;;;;5.78;4.28;;;7.50;99.90;;;;;;5020404;28;20030;-48
2022/10/11 05:43:50;;;;;;;4.75;4.05;;;7.40;99.90;;;;;;5085668;27;20023;-51
2022/10/11 05:46:16;;;;;;;7.55;3.92;;;7.40;99.90;;;;;;5020336;28;20521;-50
2022/10/11 05:48:41;;;;;;;7.30;4.25;;;7.40;99.90;;;;;;5086185;27;20451;-52
2022/10/11 05:51:09;;;;;;;5.72;3.70;;;7.40;99.90;;;;;;5028354;27;20045;-53
2022/10/11 05:53:35;;;;;;;5.32;4.05;;;7.40;99.90;;;;;;5064528;27;20030;-50
2022/10/11 05:56:01;;;;;;;5.03;3.70;;;7.40;99.90;;;;;;5040456;27;20033;-49
2022/10/11 05:58:27;;;;;;;5.55;4.10;;;7.40;99.90;;;;;;5050674;27;20069;-50
2022/10/11 06:00:55;;;;;;;5.70;4.30;;;7.40;99.90;;;;;;5051677;27;20665;-49
2022/10/11 06:03:21;;;;;;;5.85;3.95;;;7.40;99.90;;;;;;5036995;27;20780;-50
2022/10/11 06:05:46;;;;;;;5.15;4.10;;;7.40;99.90;;;;;;5065903;27;20087;-50
2022/10/11 06:08:12;;;;;;;6.93;4.40;;;7.30;99.90;;;;;;5026672;27;20022;-50
2022/10/11 06:10:38;;;;;;;5.55;3.90;;;7.30;99.90;;;;;;5077089;27;20070;-49
2022/10/11 06:13:08;;;;;;;4.82;3.30;;;7.30;99.90;;;;;;5027399;27;20030;-51
2022/10/11 06:15:33;;;;;;;9.00;4.80;;;7.20;99.90;;;;;;5088686;27;20078;-46
2022/10/11 06:17:59;;;;;;;8.77;3.90;;;7.20;99.90;;;;;;5122156;27;20023;-55
2022/10/11 06:20:26;;;;;;;4.00;3.60;;;7.30;99.90;;;;;;5058582;28;20611;-50
2022/10/11 06:22:51;;;;;;;5.28;3.90;;;7.30;99.90;;;;;;5123533;27;20098;-54
2022/10/11 06:25:20;;;;;;;5.53;3.90;;;7.30;99.90;;;;;;5056420;28;20037;-50
2022/10/11 06:27:45;;;;;;;6.63;3.85;;;7.30;99.90;;;;;;5123736;28;20366;-49
2022/10/11 06:30:14;;;;;;;5.22;3.30;;;7.30;99.90;;;;;;5061741;28;20090;-49
2022/10/11 06:32:39;;;;;;;6.00;3.60;;;7.40;99.90;;;;;;5120773;28;20031;-53
2022/10/11 06:35:05;;;;;;;5.30;3.13;;;7.40;99.90;;;;;;5073504;28;20021;-49
2022/10/11 06:37:31;;;;;;;4.50;3.33;;;7.50;99.90;;;;;;5108366;28;20080;-52
2022/10/11 06:39:57;;;;;;;6.32;3.20;;;7.50;99.90;;;;;;5086380;28;20029;-50
2022/10/11 06:42:22;;;;;;;5.22;3.40;;;7.50;99.90;;;;;;5094438;27;20401;-47
2022/10/11 06:44:48;;;;;;;6.88;3.25;;;7.60;99.90;;;;;;5105306;27;20531;-48
2022/10/11 06:47:13;;;;;;;5.88;4.10;;;7.60;99.90;;;;;;5083653;27;20030;-49
2022/10/11 06:49:39;;;;;;;5.57;3.38;;;7.60;99.90;;;;;;5051922;27;20030;-49
2022/10/11 06:52:08;;;;;;;3.40;2.85;;;7.70;99.90;;;;;;5079334;27;20026;-47
2022/10/11 06:54:33;;;;;;;4.18;3.13;;;7.70;99.90;;;;;;5030526;27;20038;-47
2022/10/11 06:56:59;;;;;;;3.15;2.80;;;7.70;99.90;;;;;;5082138;27;20022;-51
2022/10/11 06:59:30;;;;;;;4.22;2.80;;;7.80;99.90;;;;;;5024595;27;20025;-53
2022/10/11 07:01:59;;;;;;;4.18;3.08;;;7.80;99.90;;;;;;5082006;27;20017;-46
2022/10/11 07:04:26;;;;;;;5.20;3.10;;;7.80;99.90;;;;;;5022790;28;20547;-51
2022/10/11 07:06:52;;;;;;;3.58;2.78;;;7.90;99.90;;;;;;5088797;27;20017;-52
2022/10/11 07:09:17;;;;;;;2.92;2.35;;;7.90;99.90;;;;;;5023570;28;20044;-47
2022/10/11 07:11:43;;;;;;;2.95;2.40;;;8.00;99.90;;;;;;5088394;27;20110;-52
2022/10/11 07:14:11;;;;;;;4.18;2.70;;;8.10;99.90;;;;;;5022249;28;20039;-51
2022/10/11 07:16:37;;;;;;;3.25;2.95;;;8.10;99.90;;;;;;5034220;27;20047;-51
2022/10/11 07:19:04;;;;;;;3.67;2.78;;;8.20;99.90;;;;;;5023783;28;20136;-48
2022/10/11 07:21:32;;;;;;;3.40;2.70;;;8.30;99.90;;;;;;5067538;27;20083;-51
2022/10/11 07:23:57;;;;;;;4.53;2.67;;;8.30;99.90;;;;;;5107279;27;20110;-50
2022/10/11 07:26:23;;;;;;;5.18;2.72;;;8.40;99.90;;;;;;5095876;27;20040;-48
2022/10/11 07:28:48;;;;;;;4.93;3.33;;;8.40;99.90;;;;;;5092328;27;20789;-50
2022/10/11 07:31:17;;;;;;;3.70;3.30;;;8.50;99.90;;;;;;5109704;27;20493;-51
2022/10/11 07:33:42;;;;;;;4.10;3.10;;;8.50;99.90;;;;;;5080863;27;20035;-46
2022/10/11 07:36:11;;;;;;;5.18;3.33;;;8.50;99.90;;;;;;5118095;27;20378;-46
2022/10/11 07:38:41;;;;;;;4.15;3.53;;;8.50;99.90;;;;;;5058557;27;21008;-48
2022/10/11 07:41:08;;;;;;;4.68;3.72;;;8.50;99.90;;;;;;5119776;27;20022;-51
2022/10/11 07:43:34;;;;;;;6.00;3.40;;;8.50;99.90;;;;;;5055070;27;20015;-49
2022/10/11 07:46:02;;;;;;;7.60;3.95;;;8.50;99.90;;;;;;5024456;28;20509;-51
2022/10/11 07:48:32;;;;;;;5.43;3.63;;;8.50;99.90;;;;;;5066553;27;20023;-52
2022/10/11 07:51:11;;;;;;;4.82;3.60;;;8.60;99.90;;;;;;5126897;27;20097;-51
2022/10/11 07:53:48;;;;;;;5.18;3.30;;;8.60;99.90;;;;;;5065269;27;20080;-49
2022/10/11 07:56:17;;;;;;;4.03;3.10;;;8.60;99.90;;;;;;5124045;27;20031;-52
2022/10/11 07:58:43;;;;;;;4.38;3.20;;;8.60;99.90;;;;;;5061594;27;20511;-50
2022/10/11 08:01:09;;;;;;;4.07;3.15;;;8.70;99.90;;;;;;5036826;27;20070;-55
2022/10/11 08:03:36;;;;;;;4.63;3.20;;;8.70;99.90;;;;;;5086914;27;20458;-56
2022/10/11 08:06:10;;;;;;;4.40;2.95;;;8.80;99.90;;;;;;5022016;28;20057;-55
2022/10/11 08:08:36;;;;;;;3.58;3.10;;;8.80;99.90;;;;;;5087318;27;20092;-56
2022/10/11 08:11:03;;;;;;;4.32;3.17;;;8.80;99.90;;;;;;5022077;28;20059;-57
2022/10/11 08:13:28;;;;;;;5.03;3.10;;;8.90;99.90;;;;;;5075940;27;20027;-56
2022/10/11 08:15:54;;;;;;;3.78;3.10;;;9.00;99.90;;;;;;5052003;27;20026;-51
2022/10/11 08:18:19;;;;;;;5.43;3.20;;;9.00;99.90;;;;;;5084802;27;20626;-53
2022/10/11 08:20:48;;;;;;;4.55;3.35;;;9.10;99.90;;;;;;5101805;27;20056;-57
2022/10/11 08:23:16;;;;;;;7.18;3.40;;;9.20;99.90;;;;;;5096697;27;20021;-56
2022/10/11 08:25:44;;;;;;;6.63;3.42;;;9.20;99.90;;;;;;5090578;27;20054;-53
2022/10/11 08:28:15;;;;;;;5.47;3.30;;;9.30;99.90;;;;;;5107706;27;20019;-54
2022/10/11 08:30:47;;;;;;;4.97;3.20;;;9.30;99.90;;;;;;5082133;27;20507;-55
2022/10/11 08:33:12;;;;;;;5.38;3.40;;;9.30;99.90;;;;;;5112761;27;20091;-56
2022/10/11 08:35:38;;;;;;;6.28;3.00;;;9.40;99.90;;;;;;5074084;27;20027;-56
2022/10/11 08:38:03;;;;;;;4.53;3.28;;;9.40;99.90;;;;;;5117935;27;20024;-57
2022/10/11 08:40:29;;;;;;;5.13;3.30;;;9.40;99.90;;;;;;5066813;27;20035;-53
2022/10/11 08:43:03;;;;;;;4.75;3.13;;;9.40;99.90;;;;;;5119350;27;20019;-53
2022/10/11 08:45:41;;;;;;;6.05;3.60;;;9.40;99.90;;;;;;5076325;27;20017;-57
2022/10/11 08:48:15;;;;;;;5.15;3.67;;;9.50;99.90;;;;;;5027543;27;20021;-56
2022/10/11 08:50:45;;;;;;;7.68;4.60;;;9.50;99.90;;;;;;5077208;27;20044;-57
2022/10/11 08:53:52;;;;;;;7.38;4.18;;;9.50;99.90;;;;;;5021679;27;20536;-56
2022/10/11 08:56:19;;;;;;;7.35;3.80;;;9.60;99.90;;;;;;5061124;27;20045;-56
2022/10/11 08:58:44;;;;;;;5.25;3.88;;;9.60;99.90;;;;;;5117258;27;20395;-55
2022/10/11 09:01:19;;;;;;;9.65;3.70;;;9.70;99.90;;;;;;5066358;27;20046;-57
2022/10/11 09:03:46;;;;;;;6.05;3.33;;;9.70;99.90;;;;;;5118383;27;20083;-56
2022/10/11 09:06:20;;;;;;;6.25;3.20;;;9.80;99.90;;;;;;5065217;27;20049;-53
2022/10/11 09:08:54;;;;;;;5.47;3.10;;;9.90;99.90;;;;;;5121081;27;20042;-55
2022/10/11 09:11:35;;;;;;;6.18;3.55;;;9.90;99.90;;;;;;5076447;27;20074;-55
2022/10/11 09:14:03;;;;;;;3.67;2.85;;;9.90;99.90;;;;;;5028067;27;20040;-57
2022/10/11 09:16:48;;;;;;;4.15;2.80;;;10.00;99.90;;;;;;5105424;27;20058;-56
2022/10/11 09:19:22;;;;;;;6.07;2.83;;;10.10;99.90;;;;;;5116204;27;20888;-55
2022/10/11 09:21:56;;;;;;;7.93;2.92;;;10.20;99.90;;;;;;5065917;27;20019;-56
2022/10/11 09:24:33;;;;;;;4.07;2.58;;;10.20;99.90;;;;;;5117138;27;20552;-54
2022/10/11 09:27:11;;;;;;;6.15;2.90;;;10.30;99.90;;;;;;5065818;27;20593;-57
2022/10/11 09:30:00;;;;;;;7.25;2.78;;;10.40;99.90;;;;;;5117429;27;20043;-57
2022/10/11 09:32:38;;;;;;;6.45;2.65;;;10.50;99.90;;;;;;5057263;27;20469;-52
2022/10/11 09:35:16;;;;;;;5.38;2.95;;;10.60;99.90;;;;;;5116594;27;20027;-57
2022/10/11 09:37:58;;;;;;;5.97;2.55;;;10.70;99.90;;;;;;5062300;27;20552;-56
2022/10/11 09:41:03;;;;;;;11.45;2.83;;;10.80;99.90;;;;;;5112874;27;20034;-53
2022/10/11 09:43:29;;;;;;;6.07;2.72;;;10.80;99.90;;;;;;5080303;27;20052;-58
2022/10/11 09:45:55;;;;;;;4.82;2.60;;;10.90;99.90;;;;;;5046052;27;20449;-55
2022/10/11 09:48:29;;;;;;;4.90;2.58;;;11.00;99.90;;;;;;5059374;27;20447;-56
2022/10/11 09:51:05;;;;;;;4.95;2.45;;;11.00;99.90;;;;;;5038138;27;20383;-55
2022/10/11 09:53:55;;;;;;;7.90;2.60;;;11.10;99.90;;;;;;5060301;27;20024;-53
2022/10/11 09:56:23;;;;;;;5.50;2.78;;;11.20;99.90;;;;;;5047767;27;20020;-56
2022/10/11 09:58:55;;;;;;;5.32;2.30;;;11.20;99.90;;;;;;5055160;27;20208;-56
2022/10/11 10:01:23;;;;;;;4.88;2.50;;;11.30;99.90;;;;;;5041559;27;20078;-57
2022/10/11 10:04:04;;;;;;;6.22;2.38;;;11.40;99.90;;;;;;5090066;27;20552;-57
2022/10/11 10:06:29;;;;;;;7.28;3.95;;;11.50;99.90;;;;;;5104264;27;20218;-56
2022/10/11 10:09:19;;;;;;;7.93;2.70;;;11.60;99.90;;;;;;5079323;27;20031;-56
2022/10/11 10:11:45;;;;;;;5.88;2.17;;;11.70;99.90;;;;;;5099890;27;20482;-55
2022/10/11 10:14:24;;;;;;;3.97;2.20;;;11.80;99.90;;;;;;5080116;27;20023;-53
2022/10/11 10:16:59;;;;;;;4.03;1.95;;;11.80;99.90;;;;;;5093341;27;20229;-56
2022/10/11 10:19:25;;;;;;;6.63;2.20;;;11.90;99.90;;;;;;5056932;27;20073;-56
2022/10/11 10:21:55;;;;;;;3.30;2.10;;;11.90;99.90;;;;;;5033193;28;20033;-54
2022/10/11 10:24:37;;;;;;;4.47;2.03;;;12.00;99.90;;;;;;5067958;27;20029;-55
2022/10/11 10:27:21;;;;;;;5.05;1.98;;;12.10;99.90;;;;;;5035199;28;20030;-54
2022/10/11 10:30:06;;;;;;;6.03;2.10;;;12.10;99.90;;;;;;5057134;27;20045;-56
2022/10/11 10:32:46;;;;;;;4.70;1.80;;;12.20;99.90;;;;;;5047407;28;20504;-57
2022/10/11 10:35:28;;;;;;;3.65;1.45;;;12.20;99.90;;;;;;5047261;28;20029;-61
2022/10/11 10:38:30;;;;;;;6.22;2.15;;;12.30;99.90;;;;;;5055781;28;20038;-58
2022/10/11 10:41:17;;;;;;;7.13;2.08;;;12.30;99.90;;;;;;5022842;27;20026;-59
2022/10/11 10:43:49;;;;;;;4.85;2.00;;;12.30;99.90;;;;;;5083906;28;20037;-55
2022/10/11 10:46:43;;;;;;;10.27;3.65;;;12.40;99.90;;;;;;4999427;28;20058;-57
2022/10/11 10:49:21;;;;;;;6.28;1.88;;;12.50;99.90;;;;;;5082926;28;20015;-61
2022/10/11 10:51:51;;;;;;;5.28;1.85;;;12.50;99.90;;;;;;5019009;28;20562;-55
2022/10/11 10:54:35;;;;;;;5.47;1.92;;;12.50;99.90;;;;;;5085095;28;20034;-60
2022/10/11 10:57:08;;;;;;;5.03;2.03;;;12.60;99.90;;;;;;5019852;28;20653;-59
2022/10/11 11:00:03;;;;;;;5.38;2.00;;;12.70;99.90;;;;;;5084246;28;20620;-57
2022/10/11 11:02:40;;;;;;;6.75;2.10;;;12.80;99.90;;;;;;5009074;28;20076;-60
2022/10/11 11:05:30;;;;;;;8.70;2.25;;;12.80;99.90;;;;;;5075223;28;20053;-59
2022/10/11 11:08:15;;;;;;;7.10;2.25;;;12.90;99.90;;;;;;5026938;28;20039;-61
2022/10/11 11:10:48;;;;;;;6.28;1.70;;;13.00;99.90;;;;;;5054830;28;20048;-58
2022/10/11 11:13:49;;;;;;;4.68;1.98;;;13.10;99.90;;;;;;5115653;27;20410;-59
2022/10/11 11:16:41;;;;;;;7.22;1.83;;;13.10;99.90;;;;;;5043119;28;20041;-61
2022/10/11 11:19:28;;;;;;;3.47;1.30;;;13.20;99.90;;;;;;5048540;28;20050;-62
2022/10/11 11:22:13;;;;;;;6.43;1.33;;;13.20;99.90;;;;;;5040210;28;20037;-59
2022/10/11 11:24:50;;;;;;;6.35;1.40;;;13.30;99.90;;;;;;5064901;28;20019;-57
2022/10/11 11:27:36;;;;;;;8.27;1.40;;;13.30;99.90;;;;;;5031439;28;20042;-59
2022/10/11 11:30:12;;;;;;;4.18;1.40;;;13.40;99.90;;;;;;5075802;27;20046;-58
2022/10/11 11:33:08;;;;;;;4.85;1.52;;;13.40;99.90;;;;;;5026944;27;20108;-59
2022/10/11 11:35:41;;;;;;;4.70;1.40;;;13.40;99.90;;;;;;5067858;27;20021;-57
2022/10/11 11:38:19;;;;;;;3.72;1.20;;;13.50;99.90;;;;;;5127414;27;20034;-58
2022/10/11 11:40:50;;;;;;;5.28;1.50;;;13.60;99.90;;;;;;5060616;27;20013;-57
2022/10/11 11:43:19;;;;;;;5.43;1.35;;;13.60;99.90;;;;;;5126646;27;20031;-56
2022/10/11 11:45:50;;;;;;;9.35;1.67;;;13.70;99.90;;;;;;5064623;27;20179;-57
2022/10/11 11:48:19;;;;;;;7.22;1.27;;;13.80;99.90;;;;;;5019368;28;20798;-59
2022/10/11 11:51:01;;;;;;;6.45;1.30;;;14.00;99.90;;;;;;5077030;27;20027;-57
2022/10/11 11:54:07;;;;;;;6.85;1.30;;;14.10;99.90;;;;;;5002764;28;20789;-59
2022/10/11 11:56:50;;;;;;;8.07;1.80;;;14.20;99.90;;;;;;5087565;27;20045;-59
2022/10/11 11:59:35;;;;;;;5.45;1.52;;;14.40;99.90;;;;;;5022699;28;20476;-56
2022/10/11 12:02:33;;;;;;;5.85;1.75;;;14.50;99.90;;;;;;5077554;27;20752;-58
2022/10/11 12:05:04;;;;;;;4.43;1.38;;;14.60;99.90;;;;;;5029442;27;20043;-55
2022/10/11 12:07:30;;;;;;;4.05;1.20;;;14.80;99.90;;;;;;5080240;27;20074;-58
2022/10/11 12:10:29;;;;;;;5.72;1.27;;;14.90;99.90;;;;;;5028693;27;20676;-57
2022/10/11 12:13:07;;;;;;;6.57;1.50;;;15.00;99.90;;;;;;5066468;27;20401;-57
2022/10/11 12:15:33;;;;;;;6.82;1.30;;;15.20;99.90;;;;;;5116530;27;20023;-56
2022/10/11 12:18:03;;;;;;;5.63;1.20;;;15.20;99.90;;;;;;5116718;27;20023;-58
2022/10/11 12:20:39;;;;;;;3.03;1.13;;;15.40;99.90;;;;;;5104338;27;20015;-58
2022/10/11 12:23:29;;;;;;;5.63;1.30;;;15.50;99.90;;;;;;5079446;27;20496;-59
2022/10/11 12:26:13;;;;;;;5.90;1.20;;;15.50;99.90;;;;;;5032554;27;20034;-59
2022/10/11 12:28:42;;;;;;;4.82;1.08;;;15.50;99.90;;;;;;5064060;27;20074;-59
2022/10/11 12:31:48;;;;;;;7.68;1.35;;;15.50;99.90;;;;;;5033125;27;20079;-60
2022/10/11 12:34:33;;;;;;;5.15;1.33;;;15.40;99.90;;;;;;5042023;27;20048;-59
2022/10/11 12:37:19;;;;;;;3.85;1.23;;;15.30;99.90;;;;;;5062796;27;20030;-59
2022/10/11 12:39:48;;;;;;;5.03;1.27;;;15.20;99.90;;;;;;5031142;27;20036;-57
2022/10/11 12:42:24;;;;;;;5.75;1.50;;;15.10;99.90;;;;;;5064658;27;20035;-54
2022/10/11 12:45:12;;;;;;;6.75;1.38;;;15.10;99.90;;;;;;5034573;27;20457;-60
2022/10/11 12:47:59;;;;;;;6.43;1.50;;;15.00;99.90;;;;;;5075724;27;20122;-59
2022/10/11 12:50:36;;;;;;;9.10;1.33;;;15.00;99.90;;;;;;5001749;28;20370;-57
2022/10/11 12:53:29;;;;;;;5.70;1.55;;;15.00;99.90;;;;;;5081486;27;20878;-57
2022/10/11 12:56:07;;;;;;;3.28;0.93;;;15.00;99.90;;;;;;5002831;28;20076;-59
2022/10/11 12:58:40;;;;;;;5.55;1.20;;;15.00;99.90;;;;;;5085778;27;20019;-58
2022/10/11 13:01:10;;;;;;;;;;;15.10;99.90;;;;;;5021583;28;20026;-57
2022/10/11 13:03:58;;;;;;;5.18;1.10;;;15.10;99.90;;;;;;5086960;27;19914;-56
2022/10/11 13:06:37;;;;;;;7.47;1.60;;;15.20;99.90;;;;;;5020612;28;20053;-58
2022/10/11 13:09:11;;;;;;;4.38;1.35;;;15.40;99.90;;;;;;5086589;27;20388;-58
2022/10/11 13:11:48;;;;;;;4.60;1.25;;;15.40;99.90;;;;;;5021419;28;20073;-59
2022/10/11 13:14:28;;;;;;;5.53;1.50;;;15.50;99.90;;;;;;5058775;27;20462;-59
2022/10/11 13:17:09;;;;;;;6.72;2.10;;;15.50;99.90;;;;;;5081856;27;20047;-59
2022/10/11 13:19:38;;;;;;;4.65;1.27;;;15.50;99.90;;;;;;5078906;27;20051;-56